sensor_id;sensor_type;location;lat;lon;timestamp;P1;durP1;ratioP1;P2;durP2;ratioP2
50851;SDS011;43953;45.508;-122.806;2023-06-14T02:58:26;50.97;;;6.10;;
50851;SDS011;43953;45.508;-122.806;2023-06-14T02:58:58;5.30;;;1.13;;
50851;SDS011;43953;45.508;-122.806;2023-06-14T02:59:31;3.25;;;1.15;;
50851;SDS011;43953;45.508;-122.806;2023-06-14T03:00:02;3.63;;;1.10;;
50851;SDS011;43953;45.508;-122.806;2023-06-14T03:00:34;3.10;;;0.88;;
50851;SDS011;43953;45.508;-122.806;2023-06-14T03:01:07;3.92;;;1.05;;
50851;SDS011;43953;45.508;-122.806;2023-06-14T03:01:39;3.15;;;1.10;;
50851;SDS011;43953;45.508;-122.806;2023-06-14T03:02:11;2.95;;;1.13;;
50851;SDS011;43953;45.508;-122.806;2023-06-14T03:02:43;3.67;;;1.00;;
50851;SDS011;43953;45.508;-122.806;2023-06-14T03:03:15;3.45;;;1.30;;
50851;SDS011;43953;45.508;-122.806;2023-06-14T03:03:47;2.38;;;1.00;;
50851;SDS011;43953;45.508;-122.806;2023-06-14T03:04:18;2.92;;;1.20;;
50851;SDS011;43953;45.508;-122.806;2023-06-14T03:04:51;6.50;;;1.00;;
50851;SDS011;43953;45.508;-122.806;2023-06-14T03:05:22;5.45;;;1.23;;
50851;SDS011;43953;45.508;-122.806;2023-06-14T03:05:54;2.30;;;1.00;;
50851;SDS011;43953;45.508;-122.806;2023-06-14T03:06:27;6.93;;;1.63;;
50851;SDS011;43953;45.508;-122.806;2023-06-14T03:07:01;3.60;;;1.10;;
50851;SDS011;43953;45.508;-122.806;2023-06-14T03:07:33;4.63;;;1.20;;
50851;SDS011;43953;45.508;-122.806;2023-06-14T03:08:05;4.80;;;1.17;;
50851;SDS011;43953;45.508;-122.806;2023-06-14T03:08:37;7.45;;;1.13;;
50851;SDS011;43953;45.508;-122.806;2023-06-14T03:09:09;3.92;;;1.00;;
50851;SDS011;43953;45.508;-122.806;2023-06-14T03:09:41;2.83;;;0.90;;
50851;SDS011;43953;45.508;-122.806;2023-06-14T03:10:13;4.85;;;1.10;;
50851;SDS011;43953;45.508;-122.806;2023-06-14T03:10:48;1.92;;;1.00;;
50851;SDS011;43953;45.508;-122.806;2023-06-14T03:11:20;2.45;;;0.90;;
50851;SDS011;43953;45.508;-122.806;2023-06-14T03:11:51;2.13;;;1.30;;
50851;SDS011;43953;45.508;-122.806;2023-06-14T03:12:23;5.28;;;0.90;;
50851;SDS011;43953;45.508;-122.806;2023-06-14T03:12:55;3.00;;;1.08;;
50851;SDS011;43953;45.508;-122.806;2023-06-14T03:13:27;2.55;;;0.98;;
50851;SDS011;43953;45.508;-122.806;2023-06-14T03:14:03;6.22;;;1.33;;
50851;SDS011;43953;45.508;-122.806;2023-06-14T03:14:35;1.67;;;0.98;;
50851;SDS011;43953;45.508;-122.806;2023-06-14T03:15:07;5.20;;;1.25;;
50851;SDS011;43953;45.508;-122.806;2023-06-14T03:15:39;3.08;;;1.00;;
50851;SDS011;43953;45.508;-122.806;2023-06-14T03:16:12;2.63;;;0.77;;
50851;SDS011;43953;45.508;-122.806;2023-06-14T03:16:44;4.03;;;1.00;;
50851;SDS011;43953;45.508;-122.806;2023-06-14T03:17:16;2.70;;;0.90;;
50851;SDS011;43953;45.508;-122.806;2023-06-14T03:17:48;3.42;;;1.15;;
50851;SDS011;43953;45.508;-122.806;2023-06-14T03:18:20;2.85;;;1.10;;
50851;SDS011;43953;45.508;-122.806;2023-06-14T03:18:53;3.42;;;0.82;;
50851;SDS011;43953;45.508;-122.806;2023-06-14T03:19:25;4.68;;;1.10;;
50851;SDS011;43953;45.508;-122.806;2023-06-14T03:19:57;2.55;;;0.90;;
50851;SDS011;43953;45.508;-122.806;2023-06-14T03:20:28;2.95;;;1.00;;
50851;SDS011;43953;45.508;-122.806;2023-06-14T03:21:03;2.72;;;1.00;;
50851;SDS011;43953;45.508;-122.806;2023-06-14T03:21:35;2.70;;;1.00;;
50851;SDS011;43953;45.508;-122.806;2023-06-14T03:22:07;3.97;;;1.10;;
50851;SDS011;43953;45.508;-122.806;2023-06-14T03:22:39;3.95;;;1.20;;
50851;SDS011;43953;45.508;-122.806;2023-06-14T03:23:12;2.90;;;1.08;;
50851;SDS011;43953;45.508;-122.806;2023-06-14T03:23:43;5.65;;;1.15;;
50851;SDS011;43953;45.508;-122.806;2023-06-14T03:24:15;3.53;;;1.00;;
50851;SDS011;43953;45.508;-122.806;2023-06-14T03:24:50;1.85;;;1.00;;
50851;SDS011;43953;45.508;-122.806;2023-06-14T03:25:22;4.18;;;1.00;;
50851;SDS011;43953;45.508;-122.806;2023-06-14T03:25:54;4.15;;;1.02;;
50851;SDS011;43953;45.508;-122.806;2023-06-14T03:26:26;3.58;;;0.80;;
50851;SDS011;43953;45.508;-122.806;2023-06-14T03:26:58;5.95;;;1.65;;
50851;SDS011;43953;45.508;-122.806;2023-06-14T03:27:30;2.22;;;1.10;;
50851;SDS011;43953;45.508;-122.806;2023-06-14T03:28:01;7.85;;;1.23;;
50851;SDS011;43953;45.508;-122.806;2023-06-14T03:28:33;3.00;;;1.10;;
50851;SDS011;43953;45.508;-122.806;2023-06-14T03:29:05;1.67;;;0.90;;
50851;SDS011;43953;45.508;-122.806;2023-06-14T03:29:37;3.38;;;1.20;;
50851;SDS011;43953;45.508;-122.806;2023-06-14T03:30:08;3.33;;;1.10;;
50851;SDS011;43953;45.508;-122.806;2023-06-14T03:30:40;2.15;;;1.10;;
50851;SDS011;43953;45.508;-122.806;2023-06-14T03:31:13;3.40;;;0.98;;
50851;SDS011;43953;45.508;-122.806;2023-06-14T03:32:01;3.30;;;1.02;;
50851;SDS011;43953;45.508;-122.806;2023-06-14T03:32:34;2.13;;;0.80;;
50851;SDS011;43953;45.508;-122.806;2023-06-14T03:33:06;2.70;;;1.10;;
50851;SDS011;43953;45.508;-122.806;2023-06-14T03:33:37;2.53;;;1.38;;
50851;SDS011;43953;45.508;-122.806;2023-06-14T03:34:09;4.68;;;1.13;;
50851;SDS011;43953;45.508;-122.806;2023-06-14T03:34:41;2.63;;;1.02;;
50851;SDS011;43953;45.508;-122.806;2023-06-14T03:35:13;5.13;;;1.30;;
50851;SDS011;43953;45.508;-122.806;2023-06-14T03:35:48;4.22;;;1.00;;
50851;SDS011;43953;45.508;-122.806;2023-06-14T03:36:21;4.07;;;1.25;;
50851;SDS011;43953;45.508;-122.806;2023-06-14T03:36:53;3.10;;;1.10;;
50851;SDS011;43953;45.508;-122.806;2023-06-14T03:37:25;2.00;;;0.80;;
50851;SDS011;43953;45.508;-122.806;2023-06-14T03:37:57;4.07;;;1.20;;
50851;SDS011;43953;45.508;-122.806;2023-06-14T03:38:28;2.17;;;0.75;;
50851;SDS011;43953;45.508;-122.806;2023-06-14T03:39:00;3.13;;;1.10;;
50851;SDS011;43953;45.508;-122.806;2023-06-14T03:39:32;1.65;;;0.90;;
50851;SDS011;43953;45.508;-122.806;2023-06-14T03:40:04;1.40;;;0.80;;
50851;SDS011;43953;45.508;-122.806;2023-06-14T03:40:37;6.47;;;1.33;;
50851;SDS011;43953;45.508;-122.806;2023-06-14T03:41:08;1.98;;;1.08;;
50851;SDS011;43953;45.508;-122.806;2023-06-14T03:41:40;2.42;;;1.23;;
50851;SDS011;43953;45.508;-122.806;2023-06-14T03:42:13;1.92;;;0.95;;
50851;SDS011;43953;45.508;-122.806;2023-06-14T03:42:45;6.57;;;1.10;;
50851;SDS011;43953;45.508;-122.806;2023-06-14T03:43:17;1.73;;;1.00;;
50851;SDS011;43953;45.508;-122.806;2023-06-14T03:43:48;3.35;;;1.30;;
50851;SDS011;43953;45.508;-122.806;2023-06-14T03:44:20;5.60;;;1.17;;
50851;SDS011;43953;45.508;-122.806;2023-06-14T03:44:52;2.50;;;1.02;;
50851;SDS011;43953;45.508;-122.806;2023-06-14T03:45:24;2.95;;;1.10;;
50851;SDS011;43953;45.508;-122.806;2023-06-14T03:45:55;2.75;;;1.02;;
50851;SDS011;43953;45.508;-122.806;2023-06-14T03:46:27;2.35;;;1.00;;
50851;SDS011;43953;45.508;-122.806;2023-06-14T03:46:59;3.28;;;1.00;;
50851;SDS011;43953;45.508;-122.806;2023-06-14T03:47:31;2.65;;;0.98;;
50851;SDS011;43953;45.508;-122.806;2023-06-14T03:48:02;3.08;;;1.00;;
50851;SDS011;43953;45.508;-122.806;2023-06-14T03:48:37;1.02;;;0.93;;
50851;SDS011;43953;45.508;-122.806;2023-06-14T03:49:09;3.17;;;1.00;;
50851;SDS011;43953;45.508;-122.806;2023-06-14T03:49:41;2.35;;;1.02;;
50851;SDS011;43953;45.508;-122.806;2023-06-14T03:50:13;2.70;;;1.00;;
50851;SDS011;43953;45.508;-122.806;2023-06-14T03:50:45;2.70;;;1.27;;
50851;SDS011;43953;45.508;-122.806;2023-06-14T03:51:18;1.15;;;0.80;;
50851;SDS011;43953;45.508;-122.806;2023-06-14T03:51:49;1.42;;;1.00;;
50851;SDS011;43953;45.508;-122.806;2023-06-14T03:52:21;1.33;;;1.00;;
50851;SDS011;43953;45.508;-122.806;2023-06-14T03:52:54;3.42;;;1.10;;
50851;SDS011;43953;45.508;-122.806;2023-06-14T03:53:26;2.53;;;1.20;;
50851;SDS011;43953;45.508;-122.806;2023-06-14T03:54:00;3.75;;;1.67;;
50851;SDS011;43953;45.508;-122.806;2023-06-14T03:54:32;2.00;;;1.10;;
50851;SDS011;43953;45.508;-122.806;2023-06-14T03:55:03;3.00;;;1.13;;
50851;SDS011;43953;45.508;-122.806;2023-06-14T03:55:36;2.72;;;1.50;;
50851;SDS011;43953;45.508;-122.806;2023-06-14T03:56:08;4.60;;;1.33;;
50851;SDS011;43953;45.508;-122.806;2023-06-14T03:56:40;3.53;;;1.30;;
50851;SDS011;43953;45.508;-122.806;2023-06-14T03:57:12;2.75;;;1.38;;
50851;SDS011;43953;45.508;-122.806;2023-06-14T03:57:43;2.35;;;1.27;;
50851;SDS011;43953;45.508;-122.806;2023-06-14T03:58:15;3.63;;;1.58;;
50851;SDS011;43953;45.508;-122.806;2023-06-14T03:58:47;2.08;;;1.27;;
50851;SDS011;43953;45.508;-122.806;2023-06-14T03:59:19;2.25;;;1.40;;
50851;SDS011;43953;45.508;-122.806;2023-06-14T03:59:50;2.45;;;1.10;;
50851;SDS011;43953;45.508;-122.806;2023-06-14T04:00:22;4.63;;;1.52;;
50851;SDS011;43953;45.508;-122.806;2023-06-14T04:00:54;2.75;;;1.42;;
50851;SDS011;43953;45.508;-122.806;2023-06-14T04:01:26;2.40;;;1.20;;
50851;SDS011;43953;45.508;-122.806;2023-06-14T04:02:00;5.60;;;1.20;;
50851;SDS011;43953;45.508;-122.806;2023-06-14T04:02:31;2.65;;;1.20;;
50851;SDS011;43953;45.508;-122.806;2023-06-14T04:03:03;1.40;;;1.20;;
50851;SDS011;43953;45.508;-122.806;2023-06-14T04:03:36;2.55;;;1.27;;
50851;SDS011;43953;45.508;-122.806;2023-06-14T04:04:08;1.63;;;1.10;;
50851;SDS011;43953;45.508;-122.806;2023-06-14T04:04:39;2.67;;;1.17;;
50851;SDS011;43953;45.508;-122.806;2023-06-14T04:05:15;1.63;;;1.05;;
50851;SDS011;43953;45.508;-122.806;2023-06-14T04:05:47;2.65;;;1.17;;
50851;SDS011;43953;45.508;-122.806;2023-06-14T04:06:20;1.60;;;1.02;;
50851;SDS011;43953;45.508;-122.806;2023-06-14T04:06:51;1.42;;;1.00;;
50851;SDS011;43953;45.508;-122.806;2023-06-14T04:07:23;2.17;;;1.35;;
50851;SDS011;43953;45.508;-122.806;2023-06-14T04:07:55;3.33;;;1.10;;
50851;SDS011;43953;45.508;-122.806;2023-06-14T04:08:27;1.88;;;1.02;;
50851;SDS011;43953;45.508;-122.806;2023-06-14T04:08:59;1.80;;;1.13;;
50851;SDS011;43953;45.508;-122.806;2023-06-14T04:09:34;3.25;;;1.10;;
50851;SDS011;43953;45.508;-122.806;2023-06-14T04:10:06;1.48;;;0.90;;
50851;SDS011;43953;45.508;-122.806;2023-06-14T04:10:39;2.38;;;1.10;;
50851;SDS011;43953;45.508;-122.806;2023-06-14T04:11:10;2.58;;;1.10;;
50851;SDS011;43953;45.508;-122.806;2023-06-14T04:11:42;2.90;;;1.10;;
50851;SDS011;43953;45.508;-122.806;2023-06-14T04:12:14;2.15;;;1.08;;
50851;SDS011;43953;45.508;-122.806;2023-06-14T04:12:46;1.90;;;1.00;;
50851;SDS011;43953;45.508;-122.806;2023-06-14T04:13:17;1.20;;;1.02;;
50851;SDS011;43953;45.508;-122.806;2023-06-14T04:13:49;3.17;;;1.20;;
50851;SDS011;43953;45.508;-122.806;2023-06-14T04:14:21;2.25;;;1.05;;
50851;SDS011;43953;45.508;-122.806;2023-06-14T04:14:53;1.83;;;0.90;;
50851;SDS011;43953;45.508;-122.806;2023-06-14T04:15:24;2.85;;;1.20;;
50851;SDS011;43953;45.508;-122.806;2023-06-14T04:15:58;2.85;;;1.30;;
50851;SDS011;43953;45.508;-122.806;2023-06-14T04:16:30;2.58;;;1.30;;
50851;SDS011;43953;45.508;-122.806;2023-06-14T04:17:02;2.58;;;1.33;;
50851;SDS011;43953;45.508;-122.806;2023-06-14T04:17:34;3.15;;;1.10;;
50851;SDS011;43953;45.508;-122.806;2023-06-14T04:18:06;2.13;;;1.10;;
50851;SDS011;43953;45.508;-122.806;2023-06-14T04:18:37;5.45;;;1.40;;
50851;SDS011;43953;45.508;-122.806;2023-06-14T04:19:09;2.80;;;1.17;;
50851;SDS011;43953;45.508;-122.806;2023-06-14T04:19:41;3.15;;;1.00;;
50851;SDS011;43953;45.508;-122.806;2023-06-14T04:20:12;2.65;;;1.20;;
50851;SDS011;43953;45.508;-122.806;2023-06-14T04:20:44;2.53;;;1.10;;
50851;SDS011;43953;45.508;-122.806;2023-06-14T04:21:16;3.03;;;1.13;;
50851;SDS011;43953;45.508;-122.806;2023-06-14T04:21:48;2.47;;;1.27;;
50851;SDS011;43953;45.508;-122.806;2023-06-14T04:22:19;3.00;;;1.15;;
50851;SDS011;43953;45.508;-122.806;2023-06-14T04:22:51;3.10;;;1.30;;
50851;SDS011;43953;45.508;-122.806;2023-06-14T04:23:27;2.47;;;0.98;;
50851;SDS011;43953;45.508;-122.806;2023-06-14T04:23:59;2.65;;;1.25;;
50851;SDS011;43953;45.508;-122.806;2023-06-14T04:24:33;2.92;;;1.15;;
50851;SDS011;43953;45.508;-122.806;2023-06-14T04:25:05;3.13;;;1.33;;
50851;SDS011;43953;45.508;-122.806;2023-06-14T04:25:37;1.67;;;1.10;;
50851;SDS011;43953;45.508;-122.806;2023-06-14T04:26:09;3.45;;;1.00;;
50851;SDS011;43953;45.508;-122.806;2023-06-14T04:26:44;1.90;;;1.10;;
50851;SDS011;43953;45.508;-122.806;2023-06-14T04:27:18;1.25;;;0.90;;
50851;SDS011;43953;45.508;-122.806;2023-06-14T04:27:52;2.88;;;0.80;;
50851;SDS011;43953;45.508;-122.806;2023-06-14T04:28:24;1.63;;;1.13;;
50851;SDS011;43953;45.508;-122.806;2023-06-14T04:28:56;2.90;;;0.90;;
50851;SDS011;43953;45.508;-122.806;2023-06-14T04:29:32;2.58;;;1.13;;
50851;SDS011;43953;45.508;-122.806;2023-06-14T04:30:04;2.65;;;1.20;;
50851;SDS011;43953;45.508;-122.806;2023-06-14T04:30:36;1.55;;;1.23;;
50851;SDS011;43953;45.508;-122.806;2023-06-14T04:31:11;1.77;;;1.13;;
50851;SDS011;43953;45.508;-122.806;2023-06-14T04:31:43;1.77;;;1.30;;
50851;SDS011;43953;45.508;-122.806;2023-06-14T04:32:15;3.90;;;1.20;;
50851;SDS011;43953;45.508;-122.806;2023-06-14T04:32:49;3.80;;;1.20;;
50851;SDS011;43953;45.508;-122.806;2023-06-14T04:33:24;2.10;;;1.10;;
50851;SDS011;43953;45.508;-122.806;2023-06-14T04:33:56;2.05;;;1.05;;
50851;SDS011;43953;45.508;-122.806;2023-06-14T04:34:28;2.40;;;1.10;;
50851;SDS011;43953;45.508;-122.806;2023-06-14T04:35:07;1.95;;;1.27;;
50851;SDS011;43953;45.508;-122.806;2023-06-14T04:35:39;2.92;;;1.08;;
50851;SDS011;43953;45.508;-122.806;2023-06-14T04:36:11;1.88;;;1.23;;
50851;SDS011;43953;45.508;-122.806;2023-06-14T04:36:43;3.15;;;1.30;;
50851;SDS011;43953;45.508;-122.806;2023-06-14T04:37:23;1.67;;;0.98;;
50851;SDS011;43953;45.508;-122.806;2023-06-14T04:37:58;2.78;;;0.98;;
50851;SDS011;43953;45.508;-122.806;2023-06-14T04:38:30;2.63;;;1.10;;
50851;SDS011;43953;45.508;-122.806;2023-06-14T04:39:05;3.97;;;1.30;;
50851;SDS011;43953;45.508;-122.806;2023-06-14T04:39:37;2.75;;;1.13;;
50851;SDS011;43953;45.508;-122.806;2023-06-14T04:40:09;2.38;;;1.38;;
50851;SDS011;43953;45.508;-122.806;2023-06-14T04:40:41;2.15;;;1.15;;
50851;SDS011;43953;45.508;-122.806;2023-06-14T04:41:16;2.72;;;1.10;;
50851;SDS011;43953;45.508;-122.806;2023-06-14T04:41:49;1.67;;;0.90;;
50851;SDS011;43953;45.508;-122.806;2023-06-14T04:42:27;2.13;;;1.10;;
50851;SDS011;43953;45.508;-122.806;2023-06-14T04:43:01;1.92;;;1.10;;
50851;SDS011;43953;45.508;-122.806;2023-06-14T04:43:37;4.63;;;1.58;;
50851;SDS011;43953;45.508;-122.806;2023-06-14T04:44:09;2.35;;;1.20;;
50851;SDS011;43953;45.508;-122.806;2023-06-14T04:44:42;2.42;;;1.20;;
50851;SDS011;43953;45.508;-122.806;2023-06-14T04:45:14;3.40;;;1.33;;
50851;SDS011;43953;45.508;-122.806;2023-06-14T04:45:47;2.85;;;1.08;;
50851;SDS011;43953;45.508;-122.806;2023-06-14T04:46:19;2.85;;;1.38;;
50851;SDS011;43953;45.508;-122.806;2023-06-14T04:46:51;2.85;;;1.40;;
50851;SDS011;43953;45.508;-122.806;2023-06-14T04:47:23;2.38;;;1.20;;
50851;SDS011;43953;45.508;-122.806;2023-06-14T04:48:00;3.47;;;1.35;;
50851;SDS011;43953;45.508;-122.806;2023-06-14T04:48:32;2.67;;;1.15;;
50851;SDS011;43953;45.508;-122.806;2023-06-14T04:49:03;3.42;;;1.40;;
50851;SDS011;43953;45.508;-122.806;2023-06-14T04:49:35;3.00;;;1.25;;
50851;SDS011;43953;45.508;-122.806;2023-06-14T04:50:07;2.75;;;1.20;;
50851;SDS011;43953;45.508;-122.806;2023-06-14T04:50:39;3.35;;;1.60;;
50851;SDS011;43953;45.508;-122.806;2023-06-14T04:51:11;3.90;;;1.30;;
50851;SDS011;43953;45.508;-122.806;2023-06-14T04:51:44;2.85;;;1.20;;
50851;SDS011;43953;45.508;-122.806;2023-06-14T04:52:17;1.42;;;0.90;;
50851;SDS011;43953;45.508;-122.806;2023-06-14T04:52:52;3.47;;;1.30;;
50851;SDS011;43953;45.508;-122.806;2023-06-14T04:53:24;4.20;;;1.30;;
50851;SDS011;43953;45.508;-122.806;2023-06-14T04:53:59;2.85;;;1.10;;
50851;SDS011;43953;45.508;-122.806;2023-06-14T04:54:32;3.90;;;1.42;;
50851;SDS011;43953;45.508;-122.806;2023-06-14T04:55:04;3.42;;;1.55;;
50851;SDS011;43953;45.508;-122.806;2023-06-14T04:55:37;3.78;;;1.50;;
50851;SDS011;43953;45.508;-122.806;2023-06-14T04:56:09;4.32;;;1.55;;
50851;SDS011;43953;45.508;-122.806;2023-06-14T04:56:43;3.53;;;1.40;;
50851;SDS011;43953;45.508;-122.806;2023-06-14T04:57:16;2.88;;;1.40;;
50851;SDS011;43953;45.508;-122.806;2023-06-14T04:57:48;5.45;;;1.55;;
50851;SDS011;43953;45.508;-122.806;2023-06-14T04:58:23;4.00;;;1.55;;
50851;SDS011;43953;45.508;-122.806;2023-06-14T04:58:55;2.78;;;1.30;;
50851;SDS011;43953;45.508;-122.806;2023-06-14T04:59:27;3.63;;;1.45;;
50851;SDS011;43953;45.508;-122.806;2023-06-14T04:59:59;3.13;;;1.48;;
50851;SDS011;43953;45.508;-122.806;2023-06-14T05:00:31;3.65;;;1.58;;
50851;SDS011;43953;45.508;-122.806;2023-06-14T05:01:03;2.92;;;1.40;;
50851;SDS011;43953;45.508;-122.806;2023-06-14T05:01:35;3.75;;;1.60;;
50851;SDS011;43953;45.508;-122.806;2023-06-14T05:02:08;4.15;;;1.83;;
50851;SDS011;43953;45.508;-122.806;2023-06-14T05:02:39;4.97;;;1.88;;
50851;SDS011;43953;45.508;-122.806;2023-06-14T05:03:12;4.05;;;1.42;;
50851;SDS011;43953;45.508;-122.806;2023-06-14T05:03:46;5.75;;;1.60;;
50851;SDS011;43953;45.508;-122.806;2023-06-14T05:04:20;2.95;;;1.42;;
50851;SDS011;43953;45.508;-122.806;2023-06-14T05:04:53;4.57;;;1.70;;
50851;SDS011;43953;45.508;-122.806;2023-06-14T05:05:27;2.85;;;1.50;;
50851;SDS011;43953;45.508;-122.806;2023-06-14T05:05:59;3.40;;;1.70;;
50851;SDS011;43953;45.508;-122.806;2023-06-14T05:06:34;2.83;;;1.50;;
50851;SDS011;43953;45.508;-122.806;2023-06-14T05:07:07;3.72;;;1.42;;
50851;SDS011;43953;45.508;-122.806;2023-06-14T05:07:43;4.78;;;1.40;;
50851;SDS011;43953;45.508;-122.806;2023-06-14T05:08:14;3.15;;;1.52;;
50851;SDS011;43953;45.508;-122.806;2023-06-14T05:08:46;4.35;;;1.70;;
50851;SDS011;43953;45.508;-122.806;2023-06-14T05:09:18;4.55;;;1.60;;
50851;SDS011;43953;45.508;-122.806;2023-06-14T05:09:49;4.80;;;1.90;;
50851;SDS011;43953;45.508;-122.806;2023-06-14T05:10:21;4.03;;;1.73;;
50851;SDS011;43953;45.508;-122.806;2023-06-14T05:10:53;7.28;;;1.55;;
50851;SDS011;43953;45.508;-122.806;2023-06-14T05:11:24;3.20;;;1.73;;
50851;SDS011;43953;45.508;-122.806;2023-06-14T05:11:57;5.00;;;1.80;;
50851;SDS011;43953;45.508;-122.806;2023-06-14T05:12:31;5.68;;;1.50;;
50851;SDS011;43953;45.508;-122.806;2023-06-14T05:13:03;5.55;;;1.75;;
50851;SDS011;43953;45.508;-122.806;2023-06-14T05:13:34;11.05;;;1.85;;
50851;SDS011;43953;45.508;-122.806;2023-06-14T05:14:06;7.25;;;2.05;;
50851;SDS011;43953;45.508;-122.806;2023-06-14T05:14:38;5.90;;;2.05;;
50851;SDS011;43953;45.508;-122.806;2023-06-14T05:15:10;3.60;;;1.77;;
50851;SDS011;43953;45.508;-122.806;2023-06-14T05:15:42;4.35;;;1.70;;
50851;SDS011;43953;45.508;-122.806;2023-06-14T05:16:14;2.08;;;1.33;;
50851;SDS011;43953;45.508;-122.806;2023-06-14T05:16:46;5.43;;;1.80;;
50851;SDS011;43953;45.508;-122.806;2023-06-14T05:17:19;3.65;;;1.98;;
50851;SDS011;43953;45.508;-122.806;2023-06-14T05:17:51;6.07;;;1.80;;
50851;SDS011;43953;45.508;-122.806;2023-06-14T05:18:26;5.30;;;1.73;;
50851;SDS011;43953;45.508;-122.806;2023-06-14T05:18:57;4.47;;;1.88;;
50851;SDS011;43953;45.508;-122.806;2023-06-14T05:19:29;3.65;;;1.45;;
50851;SDS011;43953;45.508;-122.806;2023-06-14T05:20:01;3.50;;;1.67;;
50851;SDS011;43953;45.508;-122.806;2023-06-14T05:20:34;3.35;;;1.45;;
50851;SDS011;43953;45.508;-122.806;2023-06-14T05:21:07;4.88;;;1.88;;
50851;SDS011;43953;45.508;-122.806;2023-06-14T05:21:39;5.85;;;1.85;;
50851;SDS011;43953;45.508;-122.806;2023-06-14T05:22:11;5.15;;;1.65;;
50851;SDS011;43953;45.508;-122.806;2023-06-14T05:22:43;4.63;;;1.92;;
50851;SDS011;43953;45.508;-122.806;2023-06-14T05:23:14;4.90;;;1.73;;
50851;SDS011;43953;45.508;-122.806;2023-06-14T05:23:46;5.40;;;1.75;;
50851;SDS011;43953;45.508;-122.806;2023-06-14T05:24:18;5.18;;;1.70;;
50851;SDS011;43953;45.508;-122.806;2023-06-14T05:24:50;5.18;;;1.92;;
50851;SDS011;43953;45.508;-122.806;2023-06-14T05:25:22;6.10;;;1.85;;
50851;SDS011;43953;45.508;-122.806;2023-06-14T05:25:54;7.20;;;2.53;;
50851;SDS011;43953;45.508;-122.806;2023-06-14T05:26:25;6.85;;;2.28;;
50851;SDS011;43953;45.508;-122.806;2023-06-14T05:27:00;5.38;;;2.08;;
50851;SDS011;43953;45.508;-122.806;2023-06-14T05:27:32;7.00;;;2.33;;
50851;SDS011;43953;45.508;-122.806;2023-06-14T05:28:06;8.95;;;2.28;;
50851;SDS011;43953;45.508;-122.806;2023-06-14T05:28:38;8.00;;;2.40;;
50851;SDS011;43953;45.508;-122.806;2023-06-14T05:29:10;5.03;;;1.90;;
50851;SDS011;43953;45.508;-122.806;2023-06-14T05:29:41;5.45;;;2.00;;
50851;SDS011;43953;45.508;-122.806;2023-06-14T05:30:14;6.90;;;2.00;;
50851;SDS011;43953;45.508;-122.806;2023-06-14T05:30:46;4.10;;;1.67;;
50851;SDS011;43953;45.508;-122.806;2023-06-14T05:31:18;7.55;;;1.70;;
50851;SDS011;43953;45.508;-122.806;2023-06-14T05:31:49;6.20;;;2.20;;
50851;SDS011;43953;45.508;-122.806;2023-06-14T05:32:21;4.95;;;2.10;;
50851;SDS011;43953;45.508;-122.806;2023-06-14T05:32:53;6.43;;;2.20;;
50851;SDS011;43953;45.508;-122.806;2023-06-14T05:33:25;6.55;;;2.13;;
50851;SDS011;43953;45.508;-122.806;2023-06-14T05:33:57;5.32;;;1.90;;
50851;SDS011;43953;45.508;-122.806;2023-06-14T05:34:29;4.47;;;2.05;;
50851;SDS011;43953;45.508;-122.806;2023-06-14T05:35:01;6.88;;;2.22;;
50851;SDS011;43953;45.508;-122.806;2023-06-14T05:35:32;4.85;;;1.90;;
50851;SDS011;43953;45.508;-122.806;2023-06-14T05:36:04;8.48;;;2.70;;
50851;SDS011;43953;45.508;-122.806;2023-06-14T05:36:36;6.22;;;2.38;;
50851;SDS011;43953;45.508;-122.806;2023-06-14T05:37:07;5.28;;;2.30;;
50851;SDS011;43953;45.508;-122.806;2023-06-14T05:37:39;6.72;;;2.47;;
50851;SDS011;43953;45.508;-122.806;2023-06-14T05:38:11;4.95;;;2.03;;
50851;SDS011;43953;45.508;-122.806;2023-06-14T05:38:43;5.88;;;2.28;;
50851;SDS011;43953;45.508;-122.806;2023-06-14T05:39:16;5.32;;;2.38;;
50851;SDS011;43953;45.508;-122.806;2023-06-14T05:39:48;6.13;;;2.47;;
50851;SDS011;43953;45.508;-122.806;2023-06-14T05:40:19;6.43;;;2.08;;
50851;SDS011;43953;45.508;-122.806;2023-06-14T05:40:51;7.22;;;2.20;;
50851;SDS011;43953;45.508;-122.806;2023-06-14T05:41:24;5.68;;;1.90;;
50851;SDS011;43953;45.508;-122.806;2023-06-14T05:41:56;7.60;;;2.30;;
50851;SDS011;43953;45.508;-122.806;2023-06-14T05:42:28;6.72;;;2.15;;
50851;SDS011;43953;45.508;-122.806;2023-06-14T05:43:00;6.22;;;2.47;;
50851;SDS011;43953;45.508;-122.806;2023-06-14T05:43:32;7.03;;;2.38;;
50851;SDS011;43953;45.508;-122.806;2023-06-14T05:44:03;5.88;;;2.25;;
50851;SDS011;43953;45.508;-122.806;2023-06-14T05:44:35;7.90;;;2.92;;
50851;SDS011;43953;45.508;-122.806;2023-06-14T05:45:07;7.22;;;2.15;;
50851;SDS011;43953;45.508;-122.806;2023-06-14T05:45:39;4.95;;;1.95;;
50851;SDS011;43953;45.508;-122.806;2023-06-14T05:46:11;5.80;;;1.90;;
50851;SDS011;43953;45.508;-122.806;2023-06-14T05:46:43;6.55;;;2.40;;
50851;SDS011;43953;45.508;-122.806;2023-06-14T05:47:15;4.80;;;2.08;;
50851;SDS011;43953;45.508;-122.806;2023-06-14T05:47:47;6.75;;;2.70;;
50851;SDS011;43953;45.508;-122.806;2023-06-14T05:48:18;6.65;;;2.17;;
50851;SDS011;43953;45.508;-122.806;2023-06-14T05:48:50;5.80;;;2.08;;
50851;SDS011;43953;45.508;-122.806;2023-06-14T05:49:23;5.25;;;1.95;;
50851;SDS011;43953;45.508;-122.806;2023-06-14T05:49:54;5.90;;;1.90;;
50851;SDS011;43953;45.508;-122.806;2023-06-14T05:50:26;9.88;;;3.35;;
50851;SDS011;43953;45.508;-122.806;2023-06-14T05:50:58;4.95;;;1.90;;
50851;SDS011;43953;45.508;-122.806;2023-06-14T05:51:30;4.25;;;2.00;;
50851;SDS011;43953;45.508;-122.806;2023-06-14T05:52:02;4.78;;;1.67;;
50851;SDS011;43953;45.508;-122.806;2023-06-14T05:52:34;6.47;;;2.42;;
50851;SDS011;43953;45.508;-122.806;2023-06-14T05:53:06;6.20;;;2.33;;
50851;SDS011;43953;45.508;-122.806;2023-06-14T05:53:38;5.45;;;2.00;;
50851;SDS011;43953;45.508;-122.806;2023-06-14T05:54:09;7.13;;;2.20;;
50851;SDS011;43953;45.508;-122.806;2023-06-14T05:54:41;6.43;;;2.22;;
50851;SDS011;43953;45.508;-122.806;2023-06-14T05:55:13;4.13;;;2.08;;
50851;SDS011;43953;45.508;-122.806;2023-06-14T05:55:45;7.00;;;2.33;;
50851;SDS011;43953;45.508;-122.806;2023-06-14T05:56:17;5.85;;;2.22;;
50851;SDS011;43953;45.508;-122.806;2023-06-14T05:56:49;5.47;;;2.13;;
50851;SDS011;43953;45.508;-122.806;2023-06-14T05:57:21;5.78;;;2.40;;
50851;SDS011;43953;45.508;-122.806;2023-06-14T05:57:52;7.60;;;2.67;;
50851;SDS011;43953;45.508;-122.806;2023-06-14T05:58:24;4.90;;;2.30;;
50851;SDS011;43953;45.508;-122.806;2023-06-14T05:58:56;5.05;;;2.17;;
50851;SDS011;43953;45.508;-122.806;2023-06-14T05:59:27;5.03;;;2.28;;
50851;SDS011;43953;45.508;-122.806;2023-06-14T06:00:00;6.07;;;2.20;;
50851;SDS011;43953;45.508;-122.806;2023-06-14T06:00:32;6.40;;;2.50;;
50851;SDS011;43953;45.508;-122.806;2023-06-14T06:01:03;5.13;;;2.00;;
50851;SDS011;43953;45.508;-122.806;2023-06-14T06:01:35;7.03;;;2.85;;
50851;SDS011;43953;45.508;-122.806;2023-06-14T06:02:07;5.18;;;2.03;;
50851;SDS011;43953;45.508;-122.806;2023-06-14T06:02:39;8.13;;;2.40;;
50851;SDS011;43953;45.508;-122.806;2023-06-14T06:03:13;5.22;;;2.60;;
50851;SDS011;43953;45.508;-122.806;2023-06-14T06:03:45;5.68;;;2.10;;
50851;SDS011;43953;45.508;-122.806;2023-06-14T06:04:16;5.13;;;2.25;;
50851;SDS011;43953;45.508;-122.806;2023-06-14T06:04:48;4.78;;;2.28;;